Time;durP1;ratioP1;P1;durP2;ratioP2;P2;SDS_P1;SDS_P2;PMS_P1;PMS_P2;Temp;Humidity;BMP_temperature;BMP_pressure;BME280_temperature;BME280_humidity;BME280_pressure;Samples;Min_cycle;Max_cycle;Signal;HPM_P1;HPM_P2
2022/08/19 00:01:08;;;;;;;12.40;8.57;;;;;;;17.56;100.00;96223.81;5010005;28;20026;-64
2022/08/19 00:03:33;;;;;;;12.70;9.43;;;;;;;17.58;100.00;96232.47;5010096;28;20045;-64
2022/08/19 00:05:59;;;;;;;14.38;9.68;;;;;;;17.51;100.00;96235.34;5013721;28;20096;-64
2022/08/19 00:08:24;;;;;;;13.30;10.07;;;;;;;17.44;100.00;96252.09;5010568;28;20152;-64
2022/08/19 00:10:49;;;;;;;17.42;12.23;;;;;;;17.36;100.00;96261.75;5008496;28;20478;-64
2022/08/19 00:13:15;;;;;;;16.55;12.05;;;;;;;17.26;100.00;96271.78;5011422;28;20034;-65
2022/08/19 00:15:44;;;;;;;16.20;13.05;;;;;;;17.21;100.00;96275.03;5014414;28;20038;-64
2022/08/19 00:18:10;;;;;;;19.13;14.30;;;;;;;17.24;100.00;96267.88;5014513;28;20030;-64
2022/08/19 00:20:38;;;;;;;16.48;14.10;;;;;;;17.29;100.00;96272.94;5004739;28;20083;-63
2022/08/19 00:23:03;;;;;;;17.38;13.57;;;;;;;17.27;100.00;96272.56;4999790;28;20053;-63
2022/08/19 00:25:29;;;;;;;18.05;13.55;;;;;;;17.39;100.00;96270.00;4999474;28;20072;-64
2022/08/19 00:27:54;;;;;;;14.85;12.15;;;;;;;17.53;100.00;96266.16;5012863;28;20029;-64
2022/08/19 00:30:20;;;;;;;17.35;12.63;;;;;;;17.51;100.00;96270.59;5003160;28;20034;-63
2022/08/19 00:32:45;;;;;;;17.55;13.10;;;;;;;17.47;100.00;96267.09;5013512;28;20030;-64
2022/08/19 00:35:11;;;;;;;17.13;12.65;;;;;;;17.55;100.00;96274.84;5011462;28;20036;-64
2022/08/19 00:37:37;;;;;;;15.30;12.55;;;;;;;17.64;100.00;96277.06;5003198;28;20109;-64
2022/08/19 00:40:04;;;;;;;17.83;12.82;;;;;;;17.55;100.00;96274.06;4992594;28;20105;-63
2022/08/19 00:42:30;;;;;;;15.98;13.32;;;;;;;17.49;100.00;96262.69;4996885;28;20038;-64
2022/08/19 00:44:55;;;;;;;17.52;13.23;;;;;;;17.51;100.00;96270.59;5007797;28;20034;-64
2022/08/19 00:47:21;;;;;;;18.10;14.18;;;;;;;17.42;100.00;96262.03;5004677;28;20456;-63
2022/08/19 00:49:54;;;;;;;19.13;14.45;;;;;;;17.48;100.00;96263.09;5015347;28;20044;-64
2022/08/19 00:52:33;;;;;;;17.15;14.18;;;;;;;17.48;100.00;96265.88;5014220;28;20168;-64
2022/08/19 00:55:01;;;;;;;17.08;14.15;;;;;;;17.52;100.00;96270.16;5010161;28;20489;-64
2022/08/19 00:57:34;;;;;;;16.05;13.88;;;;;;;17.50;100.00;96274.53;5003500;28;20061;-64
2022/08/19 01:00:02;;;;;;;16.70;12.93;;;;;;;17.44;100.00;96271.47;5012977;28;20034;-64
2022/08/19 01:02:30;;;;;;;19.60;13.77;;;;;;;17.51;100.00;96278.88;5012980;28;20041;-64
2022/08/19 01:04:55;;;;;;;16.65;13.48;;;;;;;17.55;100.00;96280.38;5011929;28;20034;-62
2022/08/19 01:07:21;;;;;;;18.20;13.70;;;;;;;17.49;100.00;96287.59;5000633;28;20033;-62
2022/08/19 01:09:47;;;;;;;18.60;13.50;;;;;;;17.44;100.00;96273.47;5010530;28;20100;-63
2022/08/19 01:12:13;;;;;;;18.30;13.30;;;;;;;17.25;100.00;96275.78;5013094;28;20034;-64
2022/08/19 01:14:39;;;;;;;19.05;14.38;;;;;;;17.31;100.00;96281.59;5012838;28;20022;-63
2022/08/19 01:17:08;;;;;;;19.50;13.82;;;;;;;17.45;100.00;96264.75;4992786;28;20036;-64
2022/08/19 01:19:38;;;;;;;16.35;12.85;;;;;;;17.51;100.00;96271.34;4997164;28;20116;-63
2022/08/19 01:22:24;;;;;;;;;;;;;;;17.59;100.00;96263.69;5013391;28;20038;-63
2022/08/19 01:24:51;;;;;;;18.52;13.50;;;;;;;17.64;100.00;96254.91;4976681;28;20452;-63
2022/08/19 01:27:17;;;;;;;17.10;13.10;;;;;;;17.71;100.00;96265.06;4997016;28;20029;-64
2022/08/19 01:29:44;;;;;;;15.45;12.65;;;;;;;17.79;100.00;96260.97;4996462;28;20048;-63
2022/08/19 01:32:14;;;;;;;16.88;13.05;;;;;;;17.82;100.00;96256.56;5012952;28;20034;-65
2022/08/19 01:34:41;;;;;;;15.85;13.20;;;;;;;17.74;100.00;96255.91;5013692;28;20025;-61
2022/08/19 01:37:11;;;;;;;16.63;13.27;;;;;;;17.77;100.00;96252.28;4998084;28;20038;-65
2022/08/19 01:39:37;;;;;;;;;;;;;;;17.75;100.00;96240.84;4984508;28;20034;-66
2022/08/19 01:42:04;;;;;;;21.80;14.18;;;;;;;17.78;100.00;96246.31;4993655;28;19917;-64
2022/08/19 01:44:30;;;;;;;18.25;14.13;;;;;;;17.72;100.00;96248.03;5005825;28;20069;-64
2022/08/19 01:46:55;;;;;;;18.58;14.70;;;;;;;17.68;100.00;96250.09;5014875;28;20053;-64
2022/08/19 01:49:24;;;;;;;15.57;13.00;;;;;;;17.66;100.00;96266.34;5002264;28;20030;-66
2022/08/19 01:51:51;;;;;;;17.80;13.90;;;;;;;17.67;100.00;96264.38;5026192;28;20108;-63
2022/08/19 01:54:18;;;;;;;17.92;14.05;;;;;;;17.61;100.00;96266.03;5022575;28;20064;-63
2022/08/19 01:56:43;;;;;;;16.33;13.65;;;;;;;17.48;100.00;96265.88;5008526;28;20040;-63
2022/08/19 01:59:14;;;;;;;17.90;13.15;;;;;;;17.47;100.00;96254.03;5001258;28;20117;-63
2022/08/19 02:01:39;;;;;;;18.30;13.90;;;;;;;17.50;100.00;96250.44;5003175;28;20034;-63
2022/08/19 02:04:05;;;;;;;18.17;13.82;;;;;;;17.45;100.00;96242.59;5011979;28;20084;-63
2022/08/19 02:06:32;;;;;;;20.88;13.80;;;;;;;17.47;100.00;96239.41;5011468;28;20120;-63
2022/08/19 02:08:58;;;;;;;18.02;14.40;;;;;;;17.43;100.00;96238.69;4996801;28;20026;-63
2022/08/19 02:11:27;;;;;;;21.48;14.40;;;;;;;17.32;100.00;96242.44;5002348;28;20034;-63
2022/08/19 02:13:53;;;;;;;20.40;15.65;;;;;;;16.93;100.00;96243.88;5009711;28;20022;-63
2022/08/19 02:16:19;;;;;;;21.20;16.65;;;;;;;16.86;100.00;96229.38;5003313;28;20053;-63
2022/08/19 02:18:48;;;;;;;20.42;15.52;;;;;;;16.97;100.00;96227.22;5010838;28;20026;-63
2022/08/19 02:21:15;;;;;;;18.85;14.45;;;;;;;17.11;100.00;96234.50;5009042;28;20037;-63
2022/08/19 02:23:41;;;;;;;21.63;15.32;;;;;;;17.13;100.00;96245.94;4999038;28;20163;-63
2022/08/19 02:26:07;;;;;;;23.02;17.42;;;;;;;17.07;100.00;96258.66;5007654;28;20041;-63
2022/08/19 02:28:33;;;;;;;21.75;16.98;;;;;;;16.91;100.00;96254.56;5008814;28;20042;-64
2022/08/19 02:31:00;;;;;;;25.05;18.85;;;;;;;16.65;100.00;96245.06;5002492;28;20053;-62
2022/08/19 02:33:26;;;;;;;28.13;21.05;;;;;;;16.64;100.00;96232.44;5003189;28;20025;-64
2022/08/19 02:35:51;;;;;;;29.55;20.98;;;;;;;16.60;100.00;96231.69;5011077;28;20092;-64
2022/08/19 02:38:25;;;;;;;30.55;21.92;;;;;;;16.61;100.00;96227.75;5002102;28;20121;-64
2022/08/19 02:41:00;;;;;;;28.38;21.20;;;;;;;16.59;100.00;96230.91;5011151;28;20034;-64
2022/08/19 02:43:27;;;;;;;27.70;20.20;;;;;;;16.70;100.00;96246.56;5009849;28;20033;-64
2022/08/19 02:45:53;;;;;;;26.50;19.33;;;;;;;16.87;100.00;96250.28;5010963;28;20058;-64
2022/08/19 02:48:21;;;;;;;24.13;18.90;;;;;;;17.04;100.00;96252.00;5011240;28;20065;-63
2022/08/19 02:50:48;;;;;;;21.80;17.95;;;;;;;17.16;100.00;96254.16;5011100;28;20037;-64
2022/08/19 02:53:13;;;;;;;22.85;17.70;;;;;;;17.21;100.00;96261.19;5009968;28;20391;-64
2022/08/19 02:55:44;;;;;;;22.67;16.42;;;;;;;17.25;100.00;96245.34;5010876;28;20052;-64
2022/08/19 02:58:10;;;;;;;23.92;17.73;;;;;;;17.22;100.00;96254.47;5011032;28;20033;-64
2022/08/19 03:00:35;;;;;;;21.60;16.35;;;;;;;17.19;100.00;96252.53;5010928;28;20388;-64
2022/08/19 03:03:01;;;;;;;25.05;18.48;;;;;;;17.16;100.00;96239.53;5009806;28;20066;-64
2022/08/19 03:05:27;;;;;;;20.13;15.98;;;;;;;17.28;100.00;96243.69;5011462;28;20030;-65
2022/08/19 03:07:52;;;;;;;21.05;15.50;;;;;;;17.35;100.00;96238.81;5010772;28;20025;-64
2022/08/19 03:10:18;;;;;;;19.20;14.30;;;;;;;17.43;100.00;96245.03;5002961;28;20057;-64
2022/08/19 03:12:44;;;;;;;17.65;13.88;;;;;;;17.51;100.00;96243.66;5011093;28;20113;-65
2022/08/19 03:15:10;;;;;;;20.65;15.63;;;;;;;17.47;100.00;96240.19;5012252;28;20061;-64
2022/08/19 03:17:35;;;;;;;24.83;17.70;;;;;;;17.19;100.00;96239.47;5001157;28;20134;-64
2022/08/19 03:20:01;;;;;;;24.15;18.88;;;;;;;17.05;100.00;96248.03;4991471;28;20428;-65
2022/08/19 03:22:27;;;;;;;29.35;19.38;;;;;;;16.91;100.00;96249.03;4992330;28;20034;-65
2022/08/19 03:24:53;;;;;;;27.30;20.35;;;;;;;16.91;100.00;96248.28;5007487;28;20116;-64
2022/08/19 03:27:18;;;;;;;28.23;20.98;;;;;;;16.87;100.00;96244.75;5002333;28;20026;-64
2022/08/19 03:29:44;;;;;;;27.85;19.50;;;;;;;16.79;100.00;96239.31;5011205;28;20041;-65
2022/08/19 03:32:10;;;;;;;26.70;20.60;;;;;;;16.81;100.00;96242.44;5009598;28;20033;-64
2022/08/19 03:34:38;;;;;;;25.88;18.83;;;;;;;16.90;100.00;96241.16;5011295;28;20030;-64
2022/08/19 03:37:07;;;;;;;23.15;17.73;;;;;;;17.03;100.00;96246.88;5010517;28;20053;-65
2022/08/19 03:39:35;;;;;;;21.70;16.50;;;;;;;17.20;100.00;96251.34;5003354;28;20034;-65
2022/08/19 03:42:02;;;;;;;21.30;17.02;;;;;;;17.29;100.00;96248.81;5006129;28;20109;-64
2022/08/19 03:44:29;;;;;;;20.25;15.65;;;;;;;17.30;100.00;96239.28;5014043;28;20042;-63
2022/08/19 03:46:57;;;;;;;23.10;14.75;;;;;;;17.36;100.00;96240.38;5005256;28;20426;-63
2022/08/19 03:49:26;;;;;;;21.80;14.52;;;;;;;17.47;100.00;96237.41;5014522;28;20084;-63
2022/08/19 03:51:53;;;;;;;17.00;13.80;;;;;;;17.53;100.00;96232.94;5012383;28;20073;-63
2022/08/19 03:54:20;;;;;;;17.98;14.02;;;;;;;17.58;100.00;96229.69;5006295;28;20054;-63
2022/08/19 03:56:48;;;;;;;16.17;12.95;;;;;;;17.58;100.00;96229.69;4996693;28;20036;-64
2022/08/19 03:59:20;;;;;;;17.23;13.07;;;;;;;17.62;100.00;96229.63;5014494;28;20460;-63
2022/08/19 04:01:46;;;;;;;17.27;14.15;;;;;;;17.87;100.00;96222.84;5008838;28;20037;-64
2022/08/19 04:04:11;;;;;;;18.88;13.88;;;;;;;17.92;100.00;96214.81;5012858;28;20037;-64
2022/08/19 04:06:38;;;;;;;18.98;14.10;;;;;;;17.90;100.00;96214.47;5014551;28;20040;-64
2022/08/19 04:09:07;;;;;;;18.33;14.32;;;;;;;17.86;100.00;96215.75;5005700;28;20084;-64
2022/08/19 04:11:42;;;;;;;22.63;13.20;;;;;;;17.85;100.00;96203.09;4994678;28;20109;-64
2022/08/19 04:14:15;;;;;;;19.05;12.98;;;;;;;17.82;100.00;96193.63;4994879;28;20030;-66
2022/08/19 04:16:43;;;;;;;18.20;13.90;;;;;;;17.75;100.00;96197.34;4999264;28;20034;-63
2022/08/19 04:19:09;;;;;;;18.88;13.38;;;;;;;17.76;100.00;96187.03;5001875;28;20395;-64
2022/08/19 04:21:34;;;;;;;18.17;13.20;;;;;;;17.81;100.00;96192.06;5013770;28;20034;-65
2022/08/19 04:24:01;;;;;;;17.45;11.73;;;;;;;17.80;100.00;96189.72;5008849;28;20030;-65
2022/08/19 04:26:32;;;;;;;16.73;12.20;;;;;;;17.81;100.00;96203.16;5004401;28;20038;-66
2022/08/19 04:29:06;;;;;;;19.95;12.65;;;;;;;17.83;100.00;96211.81;5008525;28;20631;-65
2022/08/19 04:31:35;;;;;;;18.25;11.57;;;;;;;17.84;100.00;96224.44;5006001;28;20498;-64
2022/08/19 04:34:03;;;;;;;19.50;12.75;;;;;;;17.81;100.00;96221.75;5013709;28;20091;-64
2022/08/19 04:36:35;;;;;;;20.63;14.55;;;;;;;17.64;100.00;96229.19;5012463;28;20075;-64
2022/08/19 04:39:08;;;;;;;18.95;13.90;;;;;;;17.56;100.00;96231.34;5011213;28;20513;-65
2022/08/19 04:44:18;;;;;;;21.33;14.77;;;;;;;17.46;100.00;96235.84;5013350;28;20034;-64
2022/08/19 04:46:46;;;;;;;21.17;13.93;;;;;;;17.41;100.00;96243.84;5013023;28;20041;-64
2022/08/19 04:49:12;;;;;;;23.85;14.48;;;;;;;17.38;100.00;96245.50;5013167;28;20061;-64
2022/08/19 04:51:42;;;;;;;20.50;14.02;;;;;;;17.35;100.00;96240.81;5012123;28;20061;-64
2022/08/19 04:54:07;;;;;;;20.88;15.50;;;;;;;17.31;100.00;96259.47;5010333;28;20033;-63
2022/08/19 04:56:33;;;;;;;18.25;12.77;;;;;;;17.28;100.00;96263.06;5012886;28;20030;-63
2022/08/19 04:59:03;;;;;;;21.38;13.70;;;;;;;17.38;100.00;96251.81;5012849;28;20129;-63
2022/08/19 05:01:29;;;;;;;18.67;13.55;;;;;;;17.56;100.00;96254.25;5008726;28;20030;-63
2022/08/19 05:03:57;;;;;;;19.20;13.65;;;;;;;17.67;100.00;96261.59;5000539;28;20050;-65
2022/08/19 05:06:23;;;;;;;21.60;13.70;;;;;;;17.77;100.00;96260.59;5011683;28;20033;-64
2022/08/19 05:08:49;;;;;;;19.75;13.60;;;;;;;17.83;100.00;96263.69;5006357;28;20090;-66
2022/08/19 05:11:18;;;;;;;18.02;13.25;;;;;;;17.89;100.00;96262.75;5011784;28;20105;-64
2022/08/19 05:13:44;;;;;;;18.80;13.70;;;;;;;17.94;100.00;96267.03;5006638;28;20031;-64
2022/08/19 05:16:12;;;;;;;17.02;13.20;;;;;;;17.98;100.00;96275.28;5010049;28;20402;-65
2022/08/19 05:24:09;;;;;;;23.40;13.27;;;;;;;17.95;100.00;96282.44;5012752;28;20066;-64
2022/08/19 05:26:39;;;;;;;19.73;14.25;;;;;;;18.03;100.00;96285.88;5013146;28;20113;-64
2022/08/19 05:29:05;;;;;;;18.65;13.57;;;;;;;18.09;100.00;96284.16;5011496;28;20372;-66
2022/08/19 05:31:31;;;;;;;19.85;14.15;;;;;;;18.07;100.00;96281.03;5012734;28;20076;-65
2022/08/19 05:33:58;;;;;;;19.92;14.23;;;;;;;18.17;100.00;96282.00;5011249;28;20026;-65
2022/08/19 05:36:28;;;;;;;18.13;13.25;;;;;;;18.20;100.00;96281.16;5012036;28;20042;-65
2022/08/19 05:38:53;;;;;;;;;;;;;;;18.11;100.00;96284.50;5011629;28;20044;-65
2022/08/19 05:41:20;;;;;;;18.08;13.35;;;;;;;18.18;100.00;96281.59;5009000;28;19917;-65
2022/08/19 05:43:45;;;;;;;21.40;14.23;;;;;;;18.14;100.00;96284.44;5006220;28;20026;-64
2022/08/19 05:46:18;;;;;;;21.48;15.35;;;;;;;18.10;100.00;96278.19;5012012;28;20569;-64
2022/08/19 05:48:44;;;;;;;19.83;14.23;;;;;;;18.07;100.00;96278.25;5012573;28;20065;-64
2022/08/19 05:51:10;;;;;;;21.83;15.27;;;;;;;18.14;100.00;96280.91;5009643;28;20041;-64
2022/08/19 05:53:35;;;;;;;28.45;15.55;;;;;;;18.11;100.00;96271.47;5002136;28;20104;-64
2022/08/19 05:56:13;;;;;;;22.67;17.23;;;;;;;18.15;100.00;96271.38;4997464;28;20137;-64
2022/08/19 05:58:39;;;;;;;22.08;16.20;;;;;;;18.11;100.00;96257.59;5012506;28;20588;-64
2022/08/19 06:01:16;;;;;;;22.50;16.85;;;;;;;18.15;100.00;96254.75;5011563;28;20037;-64
2022/08/19 06:03:42;;;;;;;23.50;17.95;;;;;;;18.14;100.00;96258.72;5005516;28;20034;-64
2022/08/19 06:06:09;;;;;;;26.88;17.25;;;;;;;18.15;100.00;96263.06;5007590;28;20506;-65
2022/08/19 06:08:36;;;;;;;26.98;18.00;;;;;;;18.13;100.00;96259.91;5006965;28;20824;-63
2022/08/19 06:11:20;;;;;;;28.67;18.27;;;;;;;18.09;100.00;96271.06;5008585;28;20597;-62
2022/08/19 06:13:50;;;;;;;25.75;19.17;;;;;;;17.97;100.00;96266.19;5011736;28;20045;-63
2022/08/19 06:16:22;;;;;;;26.42;20.20;;;;;;;18.00;100.00;96265.31;5009843;28;20064;-63
2022/08/19 06:18:56;;;;;;;34.33;22.75;;;;;;;17.97;100.00;96266.19;5011733;28;20030;-63
2022/08/19 06:21:24;;;;;;;35.05;21.95;;;;;;;17.91;100.00;96265.88;5011879;28;20614;-63
2022/08/19 06:23:50;;;;;;;34.90;22.52;;;;;;;17.81;100.00;96269.63;5009607;28;20062;-62
2022/08/19 06:26:18;;;;;;;33.03;21.95;;;;;;;17.72;100.00;96267.41;5003470;28;20037;-64
2022/08/19 06:28:46;;;;;;;31.38;21.02;;;;;;;17.82;100.00;96273.19;5025601;28;20030;-63
2022/08/19 06:31:16;;;;;;;31.25;21.55;;;;;;;18.00;100.00;96262.56;5021570;28;20085;-63
2022/08/19 06:33:43;;;;;;;34.63;22.83;;;;;;;17.86;100.00;96266.41;5012182;28;20034;-62
2022/08/19 06:36:17;;;;;;;30.52;20.88;;;;;;;17.96;100.00;96282.03;5005519;28;20025;-61
2022/08/19 06:38:42;;;;;;;31.38;22.40;;;;;;;18.13;100.00;96279.31;5009501;28;20061;-62
2022/08/19 06:41:08;;;;;;;29.48;20.75;;;;;;;18.15;100.00;96272.16;5011504;28;20057;-64
2022/08/19 06:43:33;;;;;;;29.33;19.58;;;;;;;18.22;100.00;96281.53;5001963;28;20391;-62
2022/08/19 06:45:59;;;;;;;34.95;22.08;;;;;;;18.23;100.00;96275.56;4989010;28;20038;-62
2022/08/19 06:48:24;;;;;;;33.50;20.52;;;;;;;18.18;100.00;96278.03;5009214;28;20025;-63
2022/08/19 06:50:51;;;;;;;30.92;19.98;;;;;;;18.32;100.00;96284.06;4999606;28;20041;-64
2022/08/19 06:53:18;;;;;;;31.70;21.48;;;;;;;18.46;100.00;96283.00;5009781;28;20068;-63
2022/08/19 06:55:45;;;;;;;30.60;19.65;;;;;;;18.48;100.00;96290.88;5010635;28;20109;-66
2022/08/19 06:58:10;;;;;;;31.55;20.52;;;;;;;18.46;100.00;96291.31;5000802;28;20486;-66
2022/08/19 07:00:36;;;;;;;32.78;22.50;;;;;;;18.31;100.00;96303.91;5000087;28;20045;-65
2022/08/19 07:03:03;;;;;;;32.47;21.90;;;;;;;18.30;100.00;96292.03;5001383;28;20670;-65
2022/08/19 07:05:29;;;;;;;35.00;21.88;;;;;;;18.46;100.00;96296.88;5004233;28;20093;-66
2022/08/19 07:07:54;;;;;;;33.60;21.65;;;;;;;18.43;100.00;96302.47;5004314;28;20042;-65
2022/08/19 07:10:19;;;;;;;35.22;22.80;;;;;;;18.41;100.00;96302.91;4997322;28;20073;-66
2022/08/19 07:12:46;;;;;;;33.88;21.92;;;;;;;18.43;100.00;96292.16;5006185;28;20037;-66
2022/08/19 07:15:15;;;;;;;31.40;21.77;;;;;;;18.29;100.00;96293.25;4992948;28;20049;-65
2022/08/19 07:17:43;;;;;;;35.70;23.17;;;;;;;18.33;100.00;96285.66;4990670;28;20136;-65
2022/08/19 07:20:10;;;;;;;32.20;21.08;;;;;;;18.38;100.00;96289.88;5001904;28;20108;-64
2022/08/19 07:22:39;;;;;;;34.15;23.23;;;;;;;18.46;100.00;96293.31;5006670;28;20557;-65
2022/08/19 07:25:07;;;;;;;36.35;24.63;;;;;;;18.40;100.00;96306.09;4992657;28;20415;-65
2022/08/19 07:27:33;;;;;;;37.88;23.17;;;;;;;18.22;100.00;96301.72;5005978;28;20499;-66
2022/08/19 07:29:59;;;;;;;38.83;25.55;;;;;;;18.31;100.00;96306.66;5009096;28;20112;-67
2022/08/19 07:32:26;;;;;;;33.80;23.13;;;;;;;18.26;100.00;96307.97;5001008;28;20057;-66
2022/08/19 07:34:52;;;;;;;35.60;24.02;;;;;;;18.32;100.00;96306.25;4999103;28;20336;-66
2022/08/19 07:37:17;;;;;;;36.80;24.67;;;;;;;18.40;100.00;96312.44;4999294;28;20049;-65
2022/08/19 07:39:43;;;;;;;39.47;24.67;;;;;;;18.32;100.00;96309.03;5000941;28;20057;-65
2022/08/19 07:42:10;;;;;;;41.30;25.88;;;;;;;18.27;100.00;96311.50;4996917;28;20054;-65
2022/08/19 07:44:37;;;;;;;40.65;25.95;;;;;;;18.25;100.00;96316.72;5005964;28;20054;-65
2022/08/19 07:47:03;;;;;;;42.22;25.38;;;;;;;18.29;100.00;96309.09;4989243;28;20041;-65
2022/08/19 07:49:29;;;;;;;40.63;26.02;;;;;;;18.10;100.00;96317.00;5001766;28;20042;-65
2022/08/19 07:52:01;;;;;;;42.28;27.83;;;;;;;18.18;100.00;96319.63;5006021;28;20741;-66
2022/08/19 07:54:30;;;;;;;44.28;28.70;;;;;;;17.98;100.00;96311.31;5001417;28;20045;-66
2022/08/19 07:56:56;;;;;;;44.30;28.60;;;;;;;17.97;100.00;96321.59;5008751;28;20100;-66
2022/08/19 07:59:22;;;;;;;45.67;29.25;;;;;;;17.85;100.00;96319.44;5000940;28;20507;-66
2022/08/19 08:01:49;;;;;;;43.90;27.73;;;;;;;18.01;100.00;96316.78;5005570;28;20049;-65
2022/08/19 08:09:45;;;;;;;39.83;26.13;;;;;;;18.25;100.00;96333.34;4986684;28;20161;-65
2022/08/19 08:12:28;;;;;;;42.47;25.88;;;;;;;18.37;100.00;96331.94;4980429;28;20364;-65
2022/08/19 08:14:57;;;;;;;39.80;25.77;;;;;;;18.39;100.00;96333.06;4987183;28;20047;-65
2022/08/19 08:17:26;;;;;;;42.08;26.83;;;;;;;18.33;100.00;96332.00;4996991;28;20061;-65
2022/08/19 08:19:51;;;;;;;40.87;26.23;;;;;;;18.48;100.00;96330.47;4991162;28;20104;-66
2022/08/19 08:23:22;;;;;;;40.13;26.50;;;;;;;18.48;100.00;96338.03;5001230;28;20522;-66
2022/08/19 08:25:11;;;;;;;43.03;25.58;;;;;;;18.59;100.00;96349.69;4989673;28;20066;-67
2022/08/19 08:27:39;;;;;;;38.45;25.88;;;;;;;18.55;100.00;96337.88;5003092;28;20384;-65
2022/08/19 08:30:09;;;;;;;43.17;28.10;;;;;;;18.56;100.00;96346.97;5000306;28;20038;-65
2022/08/19 08:32:36;;;;;;;41.22;26.70;;;;;;;18.53;100.00;96341.06;5005593;28;20042;-65
2022/08/19 08:35:07;;;;;;;39.75;27.35;;;;;;;18.45;100.00;96347.19;4999506;28;20111;-64
2022/08/19 08:37:32;;;;;;;39.20;27.20;;;;;;;18.50;100.00;96350.25;5005034;28;20046;-64
2022/08/19 08:39:58;;;;;;;39.63;26.67;;;;;;;18.44;100.00;96356.72;5005588;28;20060;-65
2022/08/19 08:42:30;;;;;;;38.30;26.77;;;;;;;18.50;100.00;96353.03;4999898;28;20124;-65
2022/08/19 08:45:02;;;;;;;45.92;26.90;;;;;;;18.46;100.00;96357.88;5004692;28;20045;-64
2022/08/19 08:47:36;;;;;;;44.17;28.95;;;;;;;18.32;100.00;96353.38;5002814;28;20041;-65
2022/08/19 08:50:10;;;;;;;42.47;28.52;;;;;;;18.32;100.00;96347.84;5005569;28;20474;-66
2022/08/19 08:52:42;;;;;;;46.00;29.67;;;;;;;18.16;100.00;96356.06;4972731;28;20041;-66
2022/08/19 08:55:20;;;;;;;49.05;30.48;;;;;;;18.19;100.00;96360.78;4993093;28;20046;-64
2022/08/19 08:57:48;;;;;;;49.85;32.35;;;;;;;18.16;100.00;96358.84;5004120;28;20060;-66
2022/08/19 09:00:23;;;;;;;48.38;31.25;;;;;;;18.08;100.00;96363.75;4998506;28;20042;-65
2022/08/19 09:02:49;;;;;;;47.10;31.20;;;;;;;18.28;100.00;96366.53;5005438;28;20054;-65
2022/08/19 09:05:14;;;;;;;51.08;32.50;;;;;;;18.28;100.00;96365.75;4999107;28;20049;-65
2022/08/19 09:07:52;;;;;;;48.22;31.70;;;;;;;18.14;100.00;96383.44;4998139;28;20066;-65
2022/08/19 09:10:42;;;;;;;53.53;32.65;;;;;;;18.14;100.00;96372.34;4995777;28;20041;-65
2022/08/19 09:13:22;;;;;;;49.67;32.40;;;;;;;18.04;100.00;96381.63;4991189;28;20616;-65
2022/08/19 09:15:53;;;;;;;53.65;34.15;;;;;;;17.98;100.00;96380.56;5003364;28;20399;-65
2022/08/19 09:18:19;;;;;;;47.28;30.85;;;;;;;18.08;100.00;96385.16;4988234;28;20054;-65
2022/08/19 09:20:47;;;;;;;50.70;31.83;;;;;;;18.15;100.00;96383.00;4980122;28;20050;-65
2022/08/19 09:23:12;;;;;;;45.50;30.88;;;;;;;18.04;100.00;96385.22;5000192;28;20136;-64
2022/08/19 09:25:39;;;;;;;46.50;28.80;;;;;;;18.11;100.00;96387.03;5001985;28;20519;-65
2022/08/19 09:28:06;;;;;;;48.38;28.75;;;;;;;18.05;100.00;96392.31;4985109;28;20046;-65
2022/08/19 09:30:39;;;;;;;43.95;28.25;;;;;;;18.13;100.00;96390.97;4994471;28;20042;-66
2022/08/19 09:33:05;;;;;;;42.13;26.33;;;;;;;18.05;100.00;96392.31;5002582;28;20045;-65
2022/08/19 09:35:31;;;;;;;38.92;26.73;;;;;;;17.95;100.00;96394.06;5007504;28;20539;-65
2022/08/19 09:37:59;;;;;;;42.38;27.00;;;;;;;17.92;100.00;96394.13;5008010;28;20145;-66
2022/08/19 09:40:26;;;;;;;36.58;24.98;;;;;;;17.81;100.00;96393.47;4981486;28;20995;-65
2022/08/19 09:42:52;;;;;;;43.83;28.52;;;;;;;17.70;100.00;96394.47;4982875;28;20468;-65
2022/08/19 09:45:21;;;;;;;37.40;25.17;;;;;;;17.59;100.00;96382.75;4978869;28;20133;-64
2022/08/19 09:47:47;;;;;;;43.58;29.02;;;;;;;17.50;100.00;96391.63;4986713;28;20109;-65
2022/08/19 09:50:13;;;;;;;45.20;29.27;;;;;;;17.46;100.00;96396.41;4989113;28;20046;-66
2022/08/19 09:52:42;;;;;;;41.72;27.90;;;;;;;17.49;100.00;96401.13;5000308;28;20045;-67
2022/08/19 09:55:09;;;;;;;40.38;26.98;;;;;;;17.59;100.00;96396.59;4998276;28;20499;-65
2022/08/19 09:57:35;;;;;;;38.78;26.40;;;;;;;17.71;100.00;96406.31;4998524;28;20525;-66
2022/08/19 10:00:03;;;;;;;38.92;27.60;;;;;;;17.70;100.00;96404.75;4999730;28;20073;-65
2022/08/19 10:02:28;;;;;;;42.80;28.63;;;;;;;17.56;100.00;96417.63;4993141;28;20049;-64
2022/08/19 10:07:38;;;;;;;47.38;30.55;;;;;;;17.38;100.00;96411.59;4999506;28;20054;-66
2022/08/19 10:10:06;;;;;;;48.78;28.88;;;;;;;17.47;100.00;96411.84;4992036;28;20527;-65
2022/08/19 10:12:33;;;;;;;46.38;30.65;;;;;;;17.62;100.00;96403.31;5003016;28;20356;-67
2022/08/19 10:14:59;;;;;;;41.17;28.00;;;;;;;17.60;100.00;96417.56;5003290;28;20041;-66
2022/08/19 10:17:25;;;;;;;46.05;28.75;;;;;;;17.51;100.00;96411.78;4997246;28;20526;-68
2022/08/19 10:19:51;;;;;;;46.20;29.52;;;;;;;17.15;100.00;96421.38;5005052;28;20042;-67
2022/08/19 10:22:18;;;;;;;46.10;30.02;;;;;;;17.23;100.00;96408.22;5002280;28;20095;-67
2022/08/19 10:24:43;;;;;;;47.53;30.63;;;;;;;17.23;100.00;96412.97;5004999;28;20050;-66
2022/08/19 10:27:09;;;;;;;51.72;31.48;;;;;;;17.24;100.00;96420.09;4996441;28;20518;-66
2022/08/19 10:29:35;;;;;;;44.58;29.75;;;;;;;17.42;100.00;96428.91;4988124;28;20048;-66
2022/08/19 10:32:04;;;;;;;46.83;29.02;;;;;;;17.41;100.00;96421.81;5002742;28;20038;-66
2022/08/19 10:34:30;;;;;;;43.50;28.88;;;;;;;17.53;100.00;96425.97;5003644;28;20055;-65
2022/08/19 10:36:56;;;;;;;44.15;26.98;;;;;;;17.58;100.00;96429.06;5003077;28;20042;-65
2022/08/19 10:39:22;;;;;;;44.47;28.65;;;;;;;17.52;100.00;96425.22;4979913;28;20459;-65
2022/08/19 10:41:47;;;;;;;44.60;28.88;;;;;;;17.59;100.00;96421.53;4985827;28;20061;-66
2022/08/19 10:44:13;;;;;;;40.55;27.80;;;;;;;17.61;100.00;96423.88;4997768;28;20044;-65
2022/08/19 10:46:41;;;;;;;45.63;29.42;;;;;;;17.63;100.00;96419.50;5001988;28;20046;-65
2022/08/19 10:49:08;;;;;;;42.17;27.83;;;;;;;17.77;100.00;96429.56;4998210;28;20037;-65
2022/08/19 10:54:19;;;;;;;42.70;27.20;;;;;;;17.91;100.00;96418.25;4990599;28;20062;-65
2022/08/19 10:56:55;;;;;;;46.50;30.30;;;;;;;17.93;100.00;96428.94;5007744;28;20101;-66
2022/08/19 10:59:24;;;;;;;40.45;26.02;;;;;;;17.90;100.00;96427.78;4987034;28;20050;-65
2022/08/19 11:01:50;;;;;;;38.72;26.02;;;;;;;17.80;100.00;96422.41;5011151;28;20042;-65
2022/08/19 11:04:17;;;;;;;64.88;28.27;;;;;;;17.68;100.00;96427.34;4997908;28;20095;-64
2022/08/19 11:06:48;;;;;;;41.33;26.30;;;;;;;17.68;100.00;96438.41;4982660;28;20042;-65
2022/08/19 11:09:19;;;;;;;42.17;25.58;;;;;;;17.74;100.00;96433.19;4978015;28;20064;-64
2022/08/19 11:11:47;;;;;;;41.47;25.92;;;;;;;17.70;100.00;96430.47;4991797;28;20038;-65
2022/08/19 11:14:15;;;;;;;39.95;25.23;;;;;;;17.66;100.00;96426.94;4997218;28;20041;-65
2022/08/19 11:16:42;;;;;;;35.50;23.75;;;;;;;17.79;100.00;96432.72;5002848;28;20196;-66
2022/08/19 11:19:09;;;;;;;34.13;23.75;;;;;;;17.67;100.00;96433.28;4999635;28;20057;-65
2022/08/19 11:21:38;;;;;;;37.05;23.70;;;;;;;17.75;100.00;96424.47;5003321;28;20042;-65
2022/08/19 11:24:06;;;;;;;32.78;22.80;;;;;;;17.77;100.00;96421.25;4999645;28;20045;-64
2022/08/19 11:26:32;;;;;;;31.80;20.52;;;;;;;17.85;100.00;96422.72;4997968;28;20129;-66
2022/08/19 11:28:59;;;;;;;31.27;20.50;;;;;;;17.87;100.00;96423.09;4985800;28;20499;-66
2022/08/19 11:31:31;;;;;;;61.58;39.50;;;;;;;17.86;100.00;96432.63;4978442;28;20234;-66